Terminal Aerodrome Forecast
Issued by NWS Amarillo, TX

Home | Current Version | Previous Version | Text Only | Print | Product List | Glossary On
Versions: 1 2 3 4 5 6 7 8 9 10 11 12 13 14 15 16 17 18 19 20 21 22 23 24 25 26 27 28 29 30 31 32 33 34
000
FTUS44 KAMA 201720
TAFGUY
TAF
KGUY 201720Z 2018/2118 18015G24KT P6SM SCT050 BKN250
      TEMPO 2023/2103 5SM TSRA BR OVC040CB
     FM210300 18014KT P6SM BKN250
     FM211000 19013KT P6SM OVC015=

USA.gov is the U.S. government's official web portal to all federal, state and local government web resources and services.